sensor_id;sensor_type;location;lat;lon;timestamp;temperature;humidity
4759;DHT22;2393;50.560;12.636;2024-02-16T00:01:14;9.40;99.90
4759;DHT22;2393;50.560;12.636;2024-02-16T00:03:42;9.40;99.90
4759;DHT22;2393;50.560;12.636;2024-02-16T00:06:12;9.40;99.90
4759;DHT22;2393;50.560;12.636;2024-02-16T00:08:41;9.40;99.90
4759;DHT22;2393;50.560;12.636;2024-02-16T00:11:09;9.40;99.90
4759;DHT22;2393;50.560;12.636;2024-02-16T00:13:37;9.40;99.90
4759;DHT22;2393;50.560;12.636;2024-02-16T00:16:05;9.30;99.90
4759;DHT22;2393;50.560;12.636;2024-02-16T00:18:34;9.30;99.90
4759;DHT22;2393;50.560;12.636;2024-02-16T00:21:05;9.20;99.90
4759;DHT22;2393;50.560;12.636;2024-02-16T00:23:34;9.30;99.90
4759;DHT22;2393;50.560;12.636;2024-02-16T00:26:02;9.20;99.90
4759;DHT22;2393;50.560;12.636;2024-02-16T00:28:34;9.20;99.90
4759;DHT22;2393;50.560;12.636;2024-02-16T00:31:02;9.20;99.90
4759;DHT22;2393;50.560;12.636;2024-02-16T00:33:32;9.20;99.90
4759;DHT22;2393;50.560;12.636;2024-02-16T00:36:01;9.30;99.90
4759;DHT22;2393;50.560;12.636;2024-02-16T00:38:29;9.30;99.90
4759;DHT22;2393;50.560;12.636;2024-02-16T00:40:58;9.30;99.90
4759;DHT22;2393;50.560;12.636;2024-02-16T00:43:27;9.30;99.90
4759;DHT22;2393;50.560;12.636;2024-02-16T00:45:55;9.30;99.90
4759;DHT22;2393;50.560;12.636;2024-02-16T00:48:23;9.40;99.90
4759;DHT22;2393;50.560;12.636;2024-02-16T00:50:52;9.40;99.90
4759;DHT22;2393;50.560;12.636;2024-02-16T00:53:20;9.40;99.90
4759;DHT22;2393;50.560;12.636;2024-02-16T00:55:47;9.40;99.90
4759;DHT22;2393;50.560;12.636;2024-02-16T00:58:17;9.50;99.90
4759;DHT22;2393;50.560;12.636;2024-02-16T01:00:46;9.50;99.90
4759;DHT22;2393;50.560;12.636;2024-02-16T01:03:14;9.50;99.90
4759;DHT22;2393;50.560;12.636;2024-02-16T01:05:42;9.50;99.90
4759;DHT22;2393;50.560;12.636;2024-02-16T01:08:10;9.50;99.90
4759;DHT22;2393;50.560;12.636;2024-02-16T01:10:38;9.50;99.90
4759;DHT22;2393;50.560;12.636;2024-02-16T01:13:07;9.50;99.90
4759;DHT22;2393;50.560;12.636;2024-02-16T01:15:36;9.50;99.90
4759;DHT22;2393;50.560;12.636;2024-02-16T01:18:04;9.50;99.90
4759;DHT22;2393;50.560;12.636;2024-02-16T01:20:33;9.50;99.90
4759;DHT22;2393;50.560;12.636;2024-02-16T01:23:01;9.50;99.90
4759;DHT22;2393;50.560;12.636;2024-02-16T01:25:31;9.50;99.90
4759;DHT22;2393;50.560;12.636;2024-02-16T01:27:59;9.50;99.90
4759;DHT22;2393;50.560;12.636;2024-02-16T01:30:27;9.40;99.90
4759;DHT22;2393;50.560;12.636;2024-02-16T01:32:57;9.40;99.90
4759;DHT22;2393;50.560;12.636;2024-02-16T01:35:25;9.40;99.90
4759;DHT22;2393;50.560;12.636;2024-02-16T01:37:53;9.40;99.90
4759;DHT22;2393;50.560;12.636;2024-02-16T01:40:21;9.40;99.90
4759;DHT22;2393;50.560;12.636;2024-02-16T01:42:49;9.40;99.90
4759;DHT22;2393;50.560;12.636;2024-02-16T01:45:18;9.40;99.90
4759;DHT22;2393;50.560;12.636;2024-02-16T01:47:49;9.40;99.90
4759;DHT22;2393;50.560;12.636;2024-02-16T01:50:19;9.40;99.90
4759;DHT22;2393;50.560;12.636;2024-02-16T01:52:48;9.40;99.90
4759;DHT22;2393;50.560;12.636;2024-02-16T01:55:16;9.40;99.90
4759;DHT22;2393;50.560;12.636;2024-02-16T01:57:45;9.40;99.90
4759;DHT22;2393;50.560;12.636;2024-02-16T02:00:15;9.40;99.90
4759;DHT22;2393;50.560;12.636;2024-02-16T02:02:46;9.40;99.90
4759;DHT22;2393;50.560;12.636;2024-02-16T02:05:14;9.40;99.90
4759;DHT22;2393;50.560;12.636;2024-02-16T02:07:44;9.40;99.90
4759;DHT22;2393;50.560;12.636;2024-02-16T02:10:12;9.40;99.90
4759;DHT22;2393;50.560;12.636;2024-02-16T02:12:41;9.40;99.90
4759;DHT22;2393;50.560;12.636;2024-02-16T02:15:09;9.40;99.90
4759;DHT22;2393;50.560;12.636;2024-02-16T02:17:38;9.30;99.90
4759;DHT22;2393;50.560;12.636;2024-02-16T02:20:07;9.40;99.90
4759;DHT22;2393;50.560;12.636;2024-02-16T02:22:41;9.40;99.90
4759;DHT22;2393;50.560;12.636;2024-02-16T02:25:09;9.30;99.90
4759;DHT22;2393;50.560;12.636;2024-02-16T02:27:38;9.40;99.90
4759;DHT22;2393;50.560;12.636;2024-02-16T02:30:07;9.40;99.90
4759;DHT22;2393;50.560;12.636;2024-02-16T02:32:35;9.50;99.90
4759;DHT22;2393;50.560;12.636;2024-02-16T02:35:04;9.50;99.90
4759;DHT22;2393;50.560;12.636;2024-02-16T02:37:33;9.50;99.90
4759;DHT22;2393;50.560;12.636;2024-02-16T02:40:03;9.50;99.90
4759;DHT22;2393;50.560;12.636;2024-02-16T02:42:34;9.50;99.90
4759;DHT22;2393;50.560;12.636;2024-02-16T02:45:03;9.50;99.90
4759;DHT22;2393;50.560;12.636;2024-02-16T02:47:32;9.50;99.90
4759;DHT22;2393;50.560;12.636;2024-02-16T02:50:00;9.60;99.90
4759;DHT22;2393;50.560;12.636;2024-02-16T02:52:28;9.60;99.90
4759;DHT22;2393;50.560;12.636;2024-02-16T02:54:59;9.60;99.90
4759;DHT22;2393;50.560;12.636;2024-02-16T02:57:28;9.60;99.90
4759;DHT22;2393;50.560;12.636;2024-02-16T03:00:03;9.60;99.90
4759;DHT22;2393;50.560;12.636;2024-02-16T03:02:32;9.50;99.90
4759;DHT22;2393;50.560;12.636;2024-02-16T03:05:00;9.50;99.90
4759;DHT22;2393;50.560;12.636;2024-02-16T03:07:28;9.50;99.90
4759;DHT22;2393;50.560;12.636;2024-02-16T03:09:56;9.40;99.90
4759;DHT22;2393;50.560;12.636;2024-02-16T03:12:24;9.40;99.90
4759;DHT22;2393;50.560;12.636;2024-02-16T03:14:54;9.40;99.90
4759;DHT22;2393;50.560;12.636;2024-02-16T03:17:22;9.40;99.90
4759;DHT22;2393;50.560;12.636;2024-02-16T03:19:50;9.40;99.90
4759;DHT22;2393;50.560;12.636;2024-02-16T03:22:18;9.40;99.90
4759;DHT22;2393;50.560;12.636;2024-02-16T03:24:47;9.40;99.90
4759;DHT22;2393;50.560;12.636;2024-02-16T03:27:15;9.30;99.90
4759;DHT22;2393;50.560;12.636;2024-02-16T03:29:43;9.30;99.90
4759;DHT22;2393;50.560;12.636;2024-02-16T03:32:12;9.30;99.90
4759;DHT22;2393;50.560;12.636;2024-02-16T03:34:41;9.20;99.90
4759;DHT22;2393;50.560;12.636;2024-02-16T03:37:09;9.20;99.90
4759;DHT22;2393;50.560;12.636;2024-02-16T03:39:37;9.20;99.90
4759;DHT22;2393;50.560;12.636;2024-02-16T03:42:05;9.10;99.90
4759;DHT22;2393;50.560;12.636;2024-02-16T03:44:33;9.10;99.90
4759;DHT22;2393;50.560;12.636;2024-02-16T03:47:01;9.10;99.90
4759;DHT22;2393;50.560;12.636;2024-02-16T03:49:31;9.10;99.90
4759;DHT22;2393;50.560;12.636;2024-02-16T03:52:00;9.10;99.90
4759;DHT22;2393;50.560;12.636;2024-02-16T03:54:28;9.20;99.90
4759;DHT22;2393;50.560;12.636;2024-02-16T03:56:56;9.20;99.90
4759;DHT22;2393;50.560;12.636;2024-02-16T03:59:24;9.20;99.90
4759;DHT22;2393;50.560;12.636;2024-02-16T04:01:52;9.20;99.90
4759;DHT22;2393;50.560;12.636;2024-02-16T04:04:20;9.20;99.90
4759;DHT22;2393;50.560;12.636;2024-02-16T04:06:50;9.30;99.90
4759;DHT22;2393;50.560;12.636;2024-02-16T04:09:18;9.40;99.90
4759;DHT22;2393;50.560;12.636;2024-02-16T04:11:47;9.40;99.90
4759;DHT22;2393;50.560;12.636;2024-02-16T04:14:18;9.50;99.90
4759;DHT22;2393;50.560;12.636;2024-02-16T04:16:45;9.50;99.90
4759;DHT22;2393;50.560;12.636;2024-02-16T04:19:14;9.50;99.90
4759;DHT22;2393;50.560;12.636;2024-02-16T04:21:42;9.60;99.90
4759;DHT22;2393;50.560;12.636;2024-02-16T04:24:11;9.50;99.90
4759;DHT22;2393;50.560;12.636;2024-02-16T04:26:40;9.60;99.90
4759;DHT22;2393;50.560;12.636;2024-02-16T04:29:07;9.60;99.90
4759;DHT22;2393;50.560;12.636;2024-02-16T04:31:35;9.60;99.90
4759;DHT22;2393;50.560;12.636;2024-02-16T04:34:03;9.60;99.90
4759;DHT22;2393;50.560;12.636;2024-02-16T04:36:32;9.50;99.90
4759;DHT22;2393;50.560;12.636;2024-02-16T04:39:00;9.50;99.90
4759;DHT22;2393;50.560;12.636;2024-02-16T04:41:29;9.50;99.90
4759;DHT22;2393;50.560;12.636;2024-02-16T04:43:57;9.60;99.90
4759;DHT22;2393;50.560;12.636;2024-02-16T04:46:26;9.70;99.90
4759;DHT22;2393;50.560;12.636;2024-02-16T04:48:54;9.80;99.90
4759;DHT22;2393;50.560;12.636;2024-02-16T04:51:22;9.80;99.90
4759;DHT22;2393;50.560;12.636;2024-02-16T04:53:51;9.90;99.90
4759;DHT22;2393;50.560;12.636;2024-02-16T04:56:19;9.90;99.90
4759;DHT22;2393;50.560;12.636;2024-02-16T04:58:48;9.90;99.90
4759;DHT22;2393;50.560;12.636;2024-02-16T05:01:16;9.90;99.90
4759;DHT22;2393;50.560;12.636;2024-02-16T05:03:44;9.90;99.90
4759;DHT22;2393;50.560;12.636;2024-02-16T05:06:12;9.90;99.90
4759;DHT22;2393;50.560;12.636;2024-02-16T05:08:42;10.00;99.90
4759;DHT22;2393;50.560;12.636;2024-02-16T05:11:10;10.00;99.90
4759;DHT22;2393;50.560;12.636;2024-02-16T05:13:38;9.90;99.90
4759;DHT22;2393;50.560;12.636;2024-02-16T05:16:11;9.80;99.90
4759;DHT22;2393;50.560;12.636;2024-02-16T05:18:40;9.80;99.90
4759;DHT22;2393;50.560;12.636;2024-02-16T05:21:08;9.80;99.90
4759;DHT22;2393;50.560;12.636;2024-02-16T05:23:36;9.80;99.90
4759;DHT22;2393;50.560;12.636;2024-02-16T05:26:04;9.80;99.90
4759;DHT22;2393;50.560;12.636;2024-02-16T05:28:32;9.80;99.90
4759;DHT22;2393;50.560;12.636;2024-02-16T05:31:13;9.80;99.90
4759;DHT22;2393;50.560;12.636;2024-02-16T05:33:44;9.70;99.90
4759;DHT22;2393;50.560;12.636;2024-02-16T05:36:15;9.70;99.90
4759;DHT22;2393;50.560;12.636;2024-02-16T05:38:45;9.70;99.90
4759;DHT22;2393;50.560;12.636;2024-02-16T05:41:13;9.60;99.90
4759;DHT22;2393;50.560;12.636;2024-02-16T05:43:43;9.60;99.90
4759;DHT22;2393;50.560;12.636;2024-02-16T05:46:13;9.50;99.90
4759;DHT22;2393;50.560;12.636;2024-02-16T05:48:41;9.50;99.90
4759;DHT22;2393;50.560;12.636;2024-02-16T05:51:11;9.40;99.90
4759;DHT22;2393;50.560;12.636;2024-02-16T05:53:40;9.40;99.90
4759;DHT22;2393;50.560;12.636;2024-02-16T05:56:08;9.40;99.90
4759;DHT22;2393;50.560;12.636;2024-02-16T05:58:37;9.40;99.90
4759;DHT22;2393;50.560;12.636;2024-02-16T06:01:05;9.40;99.90
4759;DHT22;2393;50.560;12.636;2024-02-16T06:03:33;9.40;99.90
4759;DHT22;2393;50.560;12.636;2024-02-16T06:06:01;9.40;99.90
4759;DHT22;2393;50.560;12.636;2024-02-16T06:08:31;9.50;99.90
4759;DHT22;2393;50.560;12.636;2024-02-16T06:10:59;9.60;99.90
4759;DHT22;2393;50.560;12.636;2024-02-16T06:13:29;9.70;99.90
4759;DHT22;2393;50.560;12.636;2024-02-16T06:15:57;9.70;99.90
4759;DHT22;2393;50.560;12.636;2024-02-16T06:18:25;9.70;99.90
4759;DHT22;2393;50.560;12.636;2024-02-16T06:20:56;9.70;99.90
4759;DHT22;2393;50.560;12.636;2024-02-16T06:23:24;9.80;99.90
4759;DHT22;2393;50.560;12.636;2024-02-16T06:25:53;9.70;99.90
4759;DHT22;2393;50.560;12.636;2024-02-16T06:28:21;9.60;99.90
4759;DHT22;2393;50.560;12.636;2024-02-16T06:30:49;9.60;99.90
4759;DHT22;2393;50.560;12.636;2024-02-16T06:33:17;9.60;99.90
4759;DHT22;2393;50.560;12.636;2024-02-16T06:35:49;9.60;99.90
4759;DHT22;2393;50.560;12.636;2024-02-16T06:38:18;9.60;99.90
4759;DHT22;2393;50.560;12.636;2024-02-16T06:40:46;9.60;99.90
4759;DHT22;2393;50.560;12.636;2024-02-16T06:43:15;9.60;99.90
4759;DHT22;2393;50.560;12.636;2024-02-16T06:45:43;9.60;99.90
4759;DHT22;2393;50.560;12.636;2024-02-16T06:48:11;9.50;99.90
4759;DHT22;2393;50.560;12.636;2024-02-16T06:50:39;9.50;99.90
4759;DHT22;2393;50.560;12.636;2024-02-16T06:53:07;9.60;99.90
4759;DHT22;2393;50.560;12.636;2024-02-16T06:55:35;9.70;99.90
4759;DHT22;2393;50.560;12.636;2024-02-16T06:58:03;9.90;99.90
4759;DHT22;2393;50.560;12.636;2024-02-16T07:00:33;9.90;99.90
4759;DHT22;2393;50.560;12.636;2024-02-16T07:03:02;9.90;99.90
4759;DHT22;2393;50.560;12.636;2024-02-16T07:05:30;10.00;99.90
4759;DHT22;2393;50.560;12.636;2024-02-16T07:08:03;10.20;99.90
4759;DHT22;2393;50.560;12.636;2024-02-16T07:10:33;10.30;99.90
4759;DHT22;2393;50.560;12.636;2024-02-16T07:13:01;10.40;99.90
4759;DHT22;2393;50.560;12.636;2024-02-16T07:15:30;10.60;99.90
4759;DHT22;2393;50.560;12.636;2024-02-16T07:18:00;11.00;99.90
4759;DHT22;2393;50.560;12.636;2024-02-16T07:20:31;11.40;99.90
4759;DHT22;2393;50.560;12.636;2024-02-16T07:22:59;11.60;99.90
4759;DHT22;2393;50.560;12.636;2024-02-16T07:25:27;11.70;99.90
4759;DHT22;2393;50.560;12.636;2024-02-16T07:27:55;11.70;99.90
4759;DHT22;2393;50.560;12.636;2024-02-16T07:30:23;11.70;99.90
4759;DHT22;2393;50.560;12.636;2024-02-16T07:33:04;11.70;99.90
4759;DHT22;2393;50.560;12.636;2024-02-16T07:35:34;11.70;99.90
4759;DHT22;2393;50.560;12.636;2024-02-16T07:38:03;11.80;99.90
4759;DHT22;2393;50.560;12.636;2024-02-16T07:40:31;11.80;99.90
4759;DHT22;2393;50.560;12.636;2024-02-16T07:43:00;11.90;99.90
4759;DHT22;2393;50.560;12.636;2024-02-16T07:45:28;12.00;99.90
4759;DHT22;2393;50.560;12.636;2024-02-16T07:47:57;12.20;99.90
4759;DHT22;2393;50.560;12.636;2024-02-16T07:50:26;12.30;99.90
4759;DHT22;2393;50.560;12.636;2024-02-16T07:52:54;12.50;99.90
4759;DHT22;2393;50.560;12.636;2024-02-16T07:55:22;12.70;99.90
4759;DHT22;2393;50.560;12.636;2024-02-16T07:57:51;13.10;99.90
4759;DHT22;2393;50.560;12.636;2024-02-16T08:00:19;13.30;99.90
4759;DHT22;2393;50.560;12.636;2024-02-16T08:02:47;13.40;99.90
4759;DHT22;2393;50.560;12.636;2024-02-16T08:05:16;13.40;99.90
4759;DHT22;2393;50.560;12.636;2024-02-16T08:07:47;13.40;99.90
4759;DHT22;2393;50.560;12.636;2024-02-16T08:10:18;13.30;99.90
4759;DHT22;2393;50.560;12.636;2024-02-16T08:12:48;13.30;99.90
4759;DHT22;2393;50.560;12.636;2024-02-16T08:15:17;13.30;99.90
4759;DHT22;2393;50.560;12.636;2024-02-16T08:17:50;13.40;99.90
4759;DHT22;2393;50.560;12.636;2024-02-16T08:20:19;13.40;99.90
4759;DHT22;2393;50.560;12.636;2024-02-16T08:22:49;13.50;99.90
4759;DHT22;2393;50.560;12.636;2024-02-16T08:25:17;13.60;99.90
4759;DHT22;2393;50.560;12.636;2024-02-16T08:27:45;13.60;99.90
4759;DHT22;2393;50.560;12.636;2024-02-16T08:30:13;13.60;99.90
4759;DHT22;2393;50.560;12.636;2024-02-16T08:32:41;13.60;99.90
4759;DHT22;2393;50.560;12.636;2024-02-16T08:35:09;13.60;99.90
4759;DHT22;2393;50.560;12.636;2024-02-16T08:37:40;13.60;99.90
4759;DHT22;2393;50.560;12.636;2024-02-16T08:40:12;13.60;99.90
4759;DHT22;2393;50.560;12.636;2024-02-16T08:42:42;13.60;99.90
4759;DHT22;2393;50.560;12.636;2024-02-16T08:45:10;13.60;99.90
4759;DHT22;2393;50.560;12.636;2024-02-16T08:47:39;13.70;99.90
4759;DHT22;2393;50.560;12.636;2024-02-16T08:50:08;13.70;99.90
4759;DHT22;2393;50.560;12.636;2024-02-16T08:52:37;13.70;99.90
4759;DHT22;2393;50.560;12.636;2024-02-16T08:55:05;13.70;99.90
4759;DHT22;2393;50.560;12.636;2024-02-16T08:57:36;13.80;99.90
4759;DHT22;2393;50.560;12.636;2024-02-16T09:00:05;13.80;99.90
4759;DHT22;2393;50.560;12.636;2024-02-16T09:02:34;13.90;99.90
4759;DHT22;2393;50.560;12.636;2024-02-16T09:05:02;14.00;99.90
4759;DHT22;2393;50.560;12.636;2024-02-16T09:07:31;14.30;99.90
4759;DHT22;2393;50.560;12.636;2024-02-16T09:09:59;14.40;99.90
4759;DHT22;2393;50.560;12.636;2024-02-16T09:12:27;14.60;99.90
4759;DHT22;2393;50.560;12.636;2024-02-16T09:14:56;14.70;99.90
4759;DHT22;2393;50.560;12.636;2024-02-16T09:17:24;14.70;99.90
4759;DHT22;2393;50.560;12.636;2024-02-16T09:19:53;14.80;99.90
4759;DHT22;2393;50.560;12.636;2024-02-16T09:22:21;14.80;99.90
4759;DHT22;2393;50.560;12.636;2024-02-16T09:25:04;14.70;99.90
4759;DHT22;2393;50.560;12.636;2024-02-16T09:27:32;14.70;99.90
4759;DHT22;2393;50.560;12.636;2024-02-16T09:30:02;14.70;99.90
4759;DHT22;2393;50.560;12.636;2024-02-16T09:32:30;14.70;99.90
4759;DHT22;2393;50.560;12.636;2024-02-16T09:34:59;14.70;99.90
4759;DHT22;2393;50.560;12.636;2024-02-16T09:37:27;14.80;99.90
4759;DHT22;2393;50.560;12.636;2024-02-16T09:39:56;14.70;99.90
4759;DHT22;2393;50.560;12.636;2024-02-16T09:42:24;14.60;99.90
4759;DHT22;2393;50.560;12.636;2024-02-16T09:44:54;14.50;99.90
4759;DHT22;2393;50.560;12.636;2024-02-16T09:47:24;14.50;99.90
4759;DHT22;2393;50.560;12.636;2024-02-16T09:49:56;14.50;99.90
4759;DHT22;2393;50.560;12.636;2024-02-16T09:52:34;14.50;99.90
4759;DHT22;2393;50.560;12.636;2024-02-16T09:55:12;14.60;99.90
4759;DHT22;2393;50.560;12.636;2024-02-16T09:57:59;14.60;99.90
4759;DHT22;2393;50.560;12.636;2024-02-16T10:00:28;14.50;99.90
4759;DHT22;2393;50.560;12.636;2024-02-16T10:02:59;14.60;99.90
4759;DHT22;2393;50.560;12.636;2024-02-16T10:05:27;14.60;99.90
4759;DHT22;2393;50.560;12.636;2024-02-16T10:07:57;14.80;99.90
4759;DHT22;2393;50.560;12.636;2024-02-16T10:10:27;15.00;99.90
4759;DHT22;2393;50.560;12.636;2024-02-16T10:13:01;15.10;99.90
4759;DHT22;2393;50.560;12.636;2024-02-16T10:15:29;15.00;99.90
4759;DHT22;2393;50.560;12.636;2024-02-16T10:17:58;14.90;99.90
4759;DHT22;2393;50.560;12.636;2024-02-16T10:20:27;15.10;99.90
4759;DHT22;2393;50.560;12.636;2024-02-16T10:23:05;15.10;99.90
4759;DHT22;2393;50.560;12.636;2024-02-16T10:25:34;15.50;99.90
4759;DHT22;2393;50.560;12.636;2024-02-16T10:28:06;15.70;99.90
4759;DHT22;2393;50.560;12.636;2024-02-16T10:30:36;16.00;99.90
4759;DHT22;2393;50.560;12.636;2024-02-16T10:33:07;16.30;99.90
4759;DHT22;2393;50.560;12.636;2024-02-16T10:35:36;16.50;99.90
4759;DHT22;2393;50.560;12.636;2024-02-16T10:38:05;16.60;99.90
4759;DHT22;2393;50.560;12.636;2024-02-16T10:40:34;16.50;99.90
4759;DHT22;2393;50.560;12.636;2024-02-16T10:43:05;16.50;99.90
4759;DHT22;2393;50.560;12.636;2024-02-16T10:45:35;16.40;99.90
4759;DHT22;2393;50.560;12.636;2024-02-16T10:48:04;16.20;99.90
4759;DHT22;2393;50.560;12.636;2024-02-16T10:50:36;16.00;99.90
4759;DHT22;2393;50.560;12.636;2024-02-16T10:53:08;16.00;99.90
4759;DHT22;2393;50.560;12.636;2024-02-16T10:55:37;15.80;99.90
4759;DHT22;2393;50.560;12.636;2024-02-16T10:58:07;15.70;99.90
4759;DHT22;2393;50.560;12.636;2024-02-16T11:00:36;15.70;99.90
4759;DHT22;2393;50.560;12.636;2024-02-16T11:03:09;15.70;99.90
4759;DHT22;2393;50.560;12.636;2024-02-16T11:05:45;15.70;99.90
4759;DHT22;2393;50.560;12.636;2024-02-16T11:08:14;15.70;99.90
4759;DHT22;2393;50.560;12.636;2024-02-16T11:10:54;15.60;99.90
4759;DHT22;2393;50.560;12.636;2024-02-16T11:13:23;15.70;99.90
4759;DHT22;2393;50.560;12.636;2024-02-16T11:15:59;15.80;99.90
4759;DHT22;2393;50.560;12.636;2024-02-16T11:18:29;15.80;99.90
4759;DHT22;2393;50.560;12.636;2024-02-16T11:21:01;15.80;99.90
4759;DHT22;2393;50.560;12.636;2024-02-16T11:23:31;15.80;99.90
4759;DHT22;2393;50.560;12.636;2024-02-16T11:26:03;15.80;99.90
4759;DHT22;2393;50.560;12.636;2024-02-16T11:28:32;15.90;99.90
4759;DHT22;2393;50.560;12.636;2024-02-16T11:31:00;15.90;99.90
4759;DHT22;2393;50.560;12.636;2024-02-16T11:33:30;16.00;99.90
4759;DHT22;2393;50.560;12.636;2024-02-16T11:36:01;16.00;99.90
4759;DHT22;2393;50.560;12.636;2024-02-16T11:38:31;16.00;99.90
4759;DHT22;2393;50.560;12.636;2024-02-16T11:41:01;16.00;99.90
4759;DHT22;2393;50.560;12.636;2024-02-16T11:43:30;16.10;99.90
4759;DHT22;2393;50.560;12.636;2024-02-16T11:45:59;16.10;99.90
4759;DHT22;2393;50.560;12.636;2024-02-16T11:48:27;16.20;99.90
4759;DHT22;2393;50.560;12.636;2024-02-16T11:51:02;16.20;99.90
4759;DHT22;2393;50.560;12.636;2024-02-16T11:53:31;16.30;99.90
4759;DHT22;2393;50.560;12.636;2024-02-16T11:55:59;16.50;99.90
4759;DHT22;2393;50.560;12.636;2024-02-16T11:58:27;16.60;99.90
4759;DHT22;2393;50.560;12.636;2024-02-16T12:00:55;16.70;99.90
4759;DHT22;2393;50.560;12.636;2024-02-16T12:03:29;17.00;99.90
4759;DHT22;2393;50.560;12.636;2024-02-16T12:05:58;17.30;99.90
4759;DHT22;2393;50.560;12.636;2024-02-16T12:08:33;17.60;99.90
4759;DHT22;2393;50.560;12.636;2024-02-16T12:11:02;17.80;99.90
4759;DHT22;2393;50.560;12.636;2024-02-16T12:13:30;17.90;99.90
4759;DHT22;2393;50.560;12.636;2024-02-16T12:15:58;18.00;99.90
4759;DHT22;2393;50.560;12.636;2024-02-16T12:18:27;18.10;99.90
4759;DHT22;2393;50.560;12.636;2024-02-16T12:20:57;18.10;99.90
4759;DHT22;2393;50.560;12.636;2024-02-16T12:23:25;18.30;99.90
4759;DHT22;2393;50.560;12.636;2024-02-16T12:25:55;18.40;99.40
4759;DHT22;2393;50.560;12.636;2024-02-16T12:28:24;18.40;99.20
4759;DHT22;2393;50.560;12.636;2024-02-16T12:30:54;18.30;98.10
4759;DHT22;2393;50.560;12.636;2024-02-16T12:33:24;18.20;97.90
4759;DHT22;2393;50.560;12.636;2024-02-16T12:35:53;18.00;97.40
4759;DHT22;2393;50.560;12.636;2024-02-16T12:38:21;17.90;98.80
4759;DHT22;2393;50.560;12.636;2024-02-16T12:40:49;17.70;97.70
4759;DHT22;2393;50.560;12.636;2024-02-16T12:43:18;17.60;98.30
4759;DHT22;2393;50.560;12.636;2024-02-16T12:45:46;17.40;97.30
4759;DHT22;2393;50.560;12.636;2024-02-16T12:48:15;17.30;97.70
4759;DHT22;2393;50.560;12.636;2024-02-16T12:50:43;17.10;97.30
4759;DHT22;2393;50.560;12.636;2024-02-16T12:53:11;17.00;97.70
4759;DHT22;2393;50.560;12.636;2024-02-16T12:55:39;17.00;97.00
4759;DHT22;2393;50.560;12.636;2024-02-16T12:58:07;16.80;97.00
4759;DHT22;2393;50.560;12.636;2024-02-16T13:00:37;16.80;97.50
4759;DHT22;2393;50.560;12.636;2024-02-16T13:03:05;16.70;97.20
4759;DHT22;2393;50.560;12.636;2024-02-16T13:05:33;16.70;97.30
4759;DHT22;2393;50.560;12.636;2024-02-16T13:08:01;16.70;97.80
4759;DHT22;2393;50.560;12.636;2024-02-16T13:10:29;16.90;96.50
4759;DHT22;2393;50.560;12.636;2024-02-16T13:12:57;16.90;96.60
4759;DHT22;2393;50.560;12.636;2024-02-16T13:15:25;16.90;97.00
4759;DHT22;2393;50.560;12.636;2024-02-16T13:17:56;17.00;97.20
4759;DHT22;2393;50.560;12.636;2024-02-16T13:20:25;17.00;96.70
4759;DHT22;2393;50.560;12.636;2024-02-16T13:22:53;17.00;97.70
4759;DHT22;2393;50.560;12.636;2024-02-16T13:25:21;16.90;97.80
4759;DHT22;2393;50.560;12.636;2024-02-16T13:27:49;16.90;98.00
4759;DHT22;2393;50.560;12.636;2024-02-16T13:30:17;16.80;97.70
4759;DHT22;2393;50.560;12.636;2024-02-16T13:32:45;16.70;98.50
4759;DHT22;2393;50.560;12.636;2024-02-16T13:35:15;16.60;98.20
4759;DHT22;2393;50.560;12.636;2024-02-16T13:37:47;16.60;98.10
4759;DHT22;2393;50.560;12.636;2024-02-16T13:40:15;16.60;98.30
4759;DHT22;2393;50.560;12.636;2024-02-16T13:42:44;16.60;98.70
4759;DHT22;2393;50.560;12.636;2024-02-16T13:45:13;16.60;99.00
4759;DHT22;2393;50.560;12.636;2024-02-16T13:47:41;16.50;98.30
4759;DHT22;2393;50.560;12.636;2024-02-16T13:50:10;16.40;98.50
4759;DHT22;2393;50.560;12.636;2024-02-16T13:52:40;16.40;98.50
4759;DHT22;2393;50.560;12.636;2024-02-16T13:55:08;16.30;98.90
4759;DHT22;2393;50.560;12.636;2024-02-16T13:57:36;16.30;99.30
4759;DHT22;2393;50.560;12.636;2024-02-16T14:00:07;16.30;99.80
4759;DHT22;2393;50.560;12.636;2024-02-16T14:02:38;16.30;99.90
4759;DHT22;2393;50.560;12.636;2024-02-16T14:05:07;16.20;99.90
4759;DHT22;2393;50.560;12.636;2024-02-16T14:07:35;16.10;99.90
4759;DHT22;2393;50.560;12.636;2024-02-16T14:10:17;16.00;99.90
4759;DHT22;2393;50.560;12.636;2024-02-16T14:12:47;16.00;99.90
4759;DHT22;2393;50.560;12.636;2024-02-16T14:15:15;15.90;99.90
4759;DHT22;2393;50.560;12.636;2024-02-16T14:17:44;15.80;99.90
4759;DHT22;2393;50.560;12.636;2024-02-16T14:20:12;15.70;99.90
4759;DHT22;2393;50.560;12.636;2024-02-16T14:22:41;15.60;99.90
4759;DHT22;2393;50.560;12.636;2024-02-16T14:25:11;15.40;99.90
4759;DHT22;2393;50.560;12.636;2024-02-16T14:27:41;15.40;99.90
4759;DHT22;2393;50.560;12.636;2024-02-16T14:30:11;15.30;99.90
4759;DHT22;2393;50.560;12.636;2024-02-16T14:32:40;15.30;99.90
4759;DHT22;2393;50.560;12.636;2024-02-16T14:35:08;15.20;99.90
4759;DHT22;2393;50.560;12.636;2024-02-16T14:37:37;15.20;99.90
4759;DHT22;2393;50.560;12.636;2024-02-16T14:40:07;15.20;99.90
4759;DHT22;2393;50.560;12.636;2024-02-16T14:42:38;15.10;99.90
4759;DHT22;2393;50.560;12.636;2024-02-16T14:45:09;15.00;99.90
4759;DHT22;2393;50.560;12.636;2024-02-16T14:47:47;15.00;99.90
4759;DHT22;2393;50.560;12.636;2024-02-16T14:50:15;14.90;99.90
4759;DHT22;2393;50.560;12.636;2024-02-16T14:52:43;14.90;99.90
4759;DHT22;2393;50.560;12.636;2024-02-16T14:55:12;14.80;99.90
4759;DHT22;2393;50.560;12.636;2024-02-16T14:57:41;14.70;99.90
4759;DHT22;2393;50.560;12.636;2024-02-16T15:00:13;14.70;99.90
4759;DHT22;2393;50.560;12.636;2024-02-16T15:02:41;14.60;99.90
4759;DHT22;2393;50.560;12.636;2024-02-16T15:05:09;14.50;99.90
4759;DHT22;2393;50.560;12.636;2024-02-16T15:07:37;14.50;99.90
4759;DHT22;2393;50.560;12.636;2024-02-16T15:10:06;14.40;99.90
4759;DHT22;2393;50.560;12.636;2024-02-16T15:12:34;14.40;99.90
4759;DHT22;2393;50.560;12.636;2024-02-16T15:15:03;14.40;99.90
4759;DHT22;2393;50.560;12.636;2024-02-16T15:17:32;14.40;99.90
4759;DHT22;2393;50.560;12.636;2024-02-16T15:20:00;14.30;99.90
4759;DHT22;2393;50.560;12.636;2024-02-16T15:22:30;14.20;99.90
4759;DHT22;2393;50.560;12.636;2024-02-16T15:25:11;14.20;99.90
4759;DHT22;2393;50.560;12.636;2024-02-16T15:27:40;14.20;99.90
4759;DHT22;2393;50.560;12.636;2024-02-16T15:30:08;14.10;99.90
4759;DHT22;2393;50.560;12.636;2024-02-16T15:32:38;14.10;99.90
4759;DHT22;2393;50.560;12.636;2024-02-16T15:35:06;14.00;99.90
4759;DHT22;2393;50.560;12.636;2024-02-16T15:37:34;14.00;99.90
4759;DHT22;2393;50.560;12.636;2024-02-16T15:40:03;13.90;99.90
4759;DHT22;2393;50.560;12.636;2024-02-16T15:42:31;13.90;99.90
4759;DHT22;2393;50.560;12.636;2024-02-16T15:45:03;13.90;99.90
4759;DHT22;2393;50.560;12.636;2024-02-16T15:47:31;13.90;99.90
4759;DHT22;2393;50.560;12.636;2024-02-16T15:50:01;13.90;99.90
4759;DHT22;2393;50.560;12.636;2024-02-16T15:52:29;13.90;99.90
4759;DHT22;2393;50.560;12.636;2024-02-16T15:54:58;13.90;99.90
4759;DHT22;2393;50.560;12.636;2024-02-16T15:57:26;14.00;99.90
4759;DHT22;2393;50.560;12.636;2024-02-16T15:59:58;14.00;99.90
4759;DHT22;2393;50.560;12.636;2024-02-16T16:02:28;14.00;99.90
4759;DHT22;2393;50.560;12.636;2024-02-16T16:05:00;14.00;99.90